KCOD/COD METAR and TAF weather

Enter ICAO airport designator
Station Type Date Time Source
KCOD METAR 2021/07/28 19:56 UTC NOAA

KCOD 281956Z AUTO 35013G22KT 9SM FEW120 27/08 A3024 RMK AO2 SLP177 T02720083


Station Type Date Time Source
KCOD Decoded METAR 2021/07/28 19:56 UTC NOAA

Cody, WY, United States (KCOD) 44-31N 109-01W 1553M
Jul 28, 2021 - 03:56 PM EDT / 2021.07.28 1956 UTC
Wind: from the N (350 degrees) at 15 MPH (13 KT) gusting to 25 MPH (22 KT):0
Visibility: 9 mile(s):0
Sky conditions: mostly clear
Temperature: 81.0 F (27.2 C)
Dew Point: 46.9 F (8.3 C)
Relative Humidity: 30%
Pressure (altimeter): 30.24 in. Hg (1024 hPa)
ob: KCOD 281956Z AUTO 35013G22KT 9SM FEW120 27/08 A3024 RMK AO2 SLP177 T02720083
cycle: 20

Station Type Date Time Source
KCOD TAF 2021/07/28 18:36 UTC NOAA

TAF KCOD 281734Z 2818/2918 35012G22KT P6SM FEW120
FM282000 36011KT P6SM SCT120
FM290100 27012G22KT P6SM VCSH BKN120
FM290600 VRB05KT P6SM SCT120

Example: see airport list